METAR Data
IDs: Format: Raw Decoded Include TAF

Data at: 1805 UTC 21 Sep 2018

KALI 211753Z AUTO 17009KT 10SM FEW036 33/24 A2991 RMK AO2 SLP124 T03280244 10328 20250 58005
KALI 211653Z AUTO 17007KT 10SM SCT028 BKN037 31/24 A2992 RMK AO2 SLP128 T03060239
KALI 211553Z AUTO 16013KT 10SM FEW025 SCT030 SCT038 31/24 A2992 RMK AO2 SLP131 T03060244
KALI 211502Z AUTO 16012KT 10SM SCT018 29/25 A2992 RMK AO2 T02890250
KALI 211453Z AUTO 18012KT 10SM SCT018 BKN023 28/25 A2992 RMK AO2 SLP130 T02830250 51012
KALI 211423Z AUTO 17008KT 10SM SCT010 BKN017 28/26 A2992 RMK AO2 T02830256
KALI 211353Z AUTO 15005KT 10SM BKN013 27/26 A2991 RMK AO2 SLP127 T02720256
KALI 211337Z AUTO 15007KT 10SM BKN013 27/26 A2991 RMK AO2 T02720256
KALI 211253Z AUTO 14003KT 7SM CLR 26/25 A2990 RMK AO2 SLP122 T02560250
KALI 211153Z AUTO 15005KT 7SM CLR 25/24 A2989 RMK AO2 SLP117 70012 T02500244 10261 20250 53002
KALI 211053Z AUTO 14005KT 9SM FEW014 25/24 A2987 RMK AO2 SLP113 T02500244
KALI 210953Z AUTO 14005KT 10SM SCT016 25/24 A2988 RMK AO2 SLP115 T02500239
KALI 210932Z AUTO 15004KT 10SM BKN017 25/24 A2988 RMK AO2 T02500244
KALI 210853Z AUTO 16004KT 10SM CLR 26/24 A2988 RMK AO2 SLP116 T02560244 56008
KALI 210753Z AUTO 15006KT 10SM CLR 26/24 A2988 RMK AO2 SLP117 T02560244
KALI 210653Z AUTO 15009KT 10SM CLR 26/24 A2989 RMK AO2 SLP120 T02610244
KALI 210553Z AUTO 14007KT 10SM CLR 26/24 A2991 RMK AO2 SLP124 60000 T02610244 10272 20256 403220250 50002
KALI 210453Z AUTO 14009KT 10SM CLR 26/24 A2991 RMK AO2 SLP125 T02610244
KALI 210353Z AUTO 14008KT 10SM CLR 26/24 A2991 RMK AO2 SLP125 T02610244
KALI 210253Z AUTO 14007KT 10SM CLR 27/25 A2990 RMK AO2 SLP122 60000 T02670250 53010
KALI 210153Z AUTO 14007KT 10SM CLR 27/25 A2988 RMK AO2 SLP115 T02670250
KALI 210053Z AUTO 13009KT 10SM FEW075 27/26 A2986 RMK AO2 RAB2355E43 SLP108 P0000 T02670256
KALI 202353Z AUTO 13008KT 10SM FEW047 BKN080 OVC100 26/23 A2987 RMK AO2 RAB2259E24 SLP111 P0012 60012 T02560233 10322 20256 51010
KALI 202322Z AUTO 09010KT 10SM -RA SCT048 BKN095 OVC110 26/24 A2987 RMK AO2 RAB2259 P0012 T02610244
KALI 202311Z AUTO 10010KT 2 1/2SM +RA BR SCT044 BKN060 OVC090 26/24 A2986 RMK AO2 VIS 1 1/2V5 LTG DSNT NE RAB2259 P0010 T02560244
KALI 202253Z AUTO 11008KT 10SM VCTS SCT026 BKN055 OVC090 26/24 A2986 RMK AO2 LTG DSNT N SLP110 T02610239
KALI 202241Z AUTO 16010G21KT 10SM VCTS FEW020 BKN027 OVC050 27/23 A2985 RMK AO2 LTG DSNT N-SE T02670233
KALI 202226Z AUTO 11011KT 10SM VCTS FEW025 SCT037 BKN045 30/24 A2984 RMK AO2 LTG DSNT SE T03000244
KALI 202153Z AUTO 15012G20KT 10SM FEW031 SCT050 BKN095 31/24 A2984 RMK AO2 WSHFT 2129 SLP101 T03060244
KALI 202149Z AUTO 15009G20KT 10SM FEW032 SCT050 BKN060 31/24 A2984 RMK AO2 WSHFT 2129
KALI 202053Z AUTO 15006KT 10SM FEW030 SCT039 31/25 A2985 RMK AO2 SLP105 T03110250 58024
KALI 201953Z AUTO 15015G19KT 10SM FEW031 BKN039 OVC090 29/23 A2987 RMK AO2 SLP114 T02890228
KALI 201853Z AUTO 17007KT 10SM FEW080 32/23 A2990 RMK AO2 SLP121 T03170233
KALI 201753Z AUTO 17008KT 10SM FEW029 32/24 A2992 RMK AO2 SLP129 T03170239 10317 20250 58006
KALI 201653Z AUTO 17009KT 10SM CLR 31/24 A2994 RMK AO2 SLP136 T03060239
KALI 201553Z AUTO 17011KT 10SM SCT023 29/24 A2994 RMK AO2 SLP135 T02940239
KALI 201549Z AUTO 17013KT 10SM SCT023 BKN032 29/24 A2994 RMK AO2
KALI 201533Z AUTO 17008G18KT 10SM BKN019 BKN026 29/24 A2993 RMK AO2 T02940244
KALI 201453Z AUTO 16011G17KT 10SM CLR 29/26 A2992 RMK AO2 SLP130 T02890256 51009
KALI 201353Z AUTO 14004KT 7SM CLR 27/26 A2992 RMK AO2 SLP129 T02670256
KALI 201253Z AUTO 15003KT 5SM BR CLR 26/24 A2991 RMK AO2 SLP124 T02560244
KALI 201153Z AUTO 13003KT 7SM CLR 25/24 A2990 RMK AO2 SLP121 60014 70014 T02500244 10261 20250 50000
KALI 201053Z AUTO 00000KT 9SM CLR 26/25 A2990 RMK AO2 RAE08 SLP123 P0001 T02560250
KALI 201004Z AUTO 18004KT 9SM -RA FEW023 SCT038 BKN100 26/25 A2989 RMK AO2 P0001 T02560250
KALI 200953Z AUTO 17006KT 2SM +RA BR SCT025 BKN100 26/25 A2989 RMK AO2 RAB45 SLP120 P0013 T02560250
KALI 200853Z AUTO 14004KT 10SM FEW019 26/24 A2990 RMK AO2 SLP121 T02560244 58010
KALI 200753Z AUTO 16005KT 10SM FEW018 26/24 A2991 RMK AO2 SLP125 T02560244
KALI 200653Z AUTO 13004KT 9SM SCT016 26/25 A2992 RMK AO2 SLP128 T02560250